sensor_id;sensor_type;location;lat;lon;timestamp;temperature;humidity
65038;DHT22;51605;47.040;15.294;2022-12-18T00:01:37;20.60;59.00
65038;DHT22;51605;47.040;15.294;2022-12-18T00:04:05;20.60;59.00
65038;DHT22;51605;47.040;15.294;2022-12-18T00:06:31;20.60;59.00
65038;DHT22;51605;47.040;15.294;2022-12-18T00:08:58;20.60;59.00
65038;DHT22;51605;47.040;15.294;2022-12-18T00:11:27;20.60;58.90
65038;DHT22;51605;47.040;15.294;2022-12-18T00:13:54;20.60;58.80
65038;DHT22;51605;47.040;15.294;2022-12-18T00:16:21;20.60;58.90
65038;DHT22;51605;47.040;15.294;2022-12-18T00:18:53;20.60;58.90
65038;DHT22;51605;47.040;15.294;2022-12-18T00:21:20;20.60;58.90
65038;DHT22;51605;47.040;15.294;2022-12-18T00:23:47;20.60;58.90
65038;DHT22;51605;47.040;15.294;2022-12-18T00:26:14;20.60;58.90
65038;DHT22;51605;47.040;15.294;2022-12-18T00:28:40;20.60;58.90
65038;DHT22;51605;47.040;15.294;2022-12-18T00:31:11;20.60;58.80
65038;DHT22;51605;47.040;15.294;2022-12-18T00:33:37;20.60;58.90
65038;DHT22;51605;47.040;15.294;2022-12-18T00:36:04;20.60;58.90
65038;DHT22;51605;47.040;15.294;2022-12-18T00:38:30;20.60;58.90
65038;DHT22;51605;47.040;15.294;2022-12-18T00:40:56;20.60;58.80
65038;DHT22;51605;47.040;15.294;2022-12-18T00:43:21;20.60;58.80
65038;DHT22;51605;47.040;15.294;2022-12-18T00:45:47;20.70;58.90
65038;DHT22;51605;47.040;15.294;2022-12-18T00:48:13;20.60;58.80
65038;DHT22;51605;47.040;15.294;2022-12-18T00:50:38;20.60;59.80
65038;DHT22;51605;47.040;15.294;2022-12-18T00:53:04;20.60;58.90
65038;DHT22;51605;47.040;15.294;2022-12-18T00:55:30;20.60;58.80
65038;DHT22;51605;47.040;15.294;2022-12-18T00:57:55;20.60;58.80
65038;DHT22;51605;47.040;15.294;2022-12-18T01:00:21;20.60;58.80
65038;DHT22;51605;47.040;15.294;2022-12-18T01:02:47;20.60;58.80
65038;DHT22;51605;47.040;15.294;2022-12-18T01:05:14;20.60;58.80
65038;DHT22;51605;47.040;15.294;2022-12-18T01:07:39;20.60;58.80
65038;DHT22;51605;47.040;15.294;2022-12-18T01:10:06;20.60;58.80
65038;DHT22;51605;47.040;15.294;2022-12-18T01:12:32;20.60;58.80
65038;DHT22;51605;47.040;15.294;2022-12-18T01:14:57;20.60;58.80
65038;DHT22;51605;47.040;15.294;2022-12-18T01:17:23;20.60;58.80
65038;DHT22;51605;47.040;15.294;2022-12-18T01:19:49;20.60;58.80
65038;DHT22;51605;47.040;15.294;2022-12-18T01:22:15;20.60;58.80
65038;DHT22;51605;47.040;15.294;2022-12-18T01:24:40;20.60;58.80
65038;DHT22;51605;47.040;15.294;2022-12-18T01:27:06;20.60;58.80
65038;DHT22;51605;47.040;15.294;2022-12-18T01:29:32;20.60;58.80
65038;DHT22;51605;47.040;15.294;2022-12-18T01:31:57;20.60;58.80
65038;DHT22;51605;47.040;15.294;2022-12-18T01:34:24;20.60;58.80
65038;DHT22;51605;47.040;15.294;2022-12-18T01:36:50;20.60;58.70
65038;DHT22;51605;47.040;15.294;2022-12-18T01:39:18;20.60;58.70
65038;DHT22;51605;47.040;15.294;2022-12-18T01:41:44;20.60;58.70
65038;DHT22;51605;47.040;15.294;2022-12-18T01:49:55;20.60;58.80
65038;DHT22;51605;47.040;15.294;2022-12-18T01:52:21;20.60;58.80
65038;DHT22;51605;47.040;15.294;2022-12-18T01:54:50;20.60;58.80
65038;DHT22;51605;47.040;15.294;2022-12-18T01:57:17;20.60;58.70
65038;DHT22;51605;47.040;15.294;2022-12-18T01:59:45;20.60;58.70
65038;DHT22;51605;47.040;15.294;2022-12-18T02:02:12;20.60;58.70
65038;DHT22;51605;47.040;15.294;2022-12-18T02:04:39;20.60;58.70
65038;DHT22;51605;47.040;15.294;2022-12-18T02:09:59;20.60;58.80
65038;DHT22;51605;47.040;15.294;2022-12-18T02:12:35;20.60;58.70
65038;DHT22;51605;47.040;15.294;2022-12-18T02:17:46;20.60;58.70
65038;DHT22;51605;47.040;15.294;2022-12-18T02:20:28;20.70;58.60
65038;DHT22;51605;47.040;15.294;2022-12-18T02:28:20;20.70;58.70
65038;DHT22;51605;47.040;15.294;2022-12-18T02:30:48;20.60;58.70
65038;DHT22;51605;47.040;15.294;2022-12-18T02:33:14;20.60;58.70
65038;DHT22;51605;47.040;15.294;2022-12-18T02:35:41;20.60;58.60
65038;DHT22;51605;47.040;15.294;2022-12-18T02:38:07;20.60;58.70
65038;DHT22;51605;47.040;15.294;2022-12-18T02:40:35;20.60;58.80
65038;DHT22;51605;47.040;15.294;2022-12-18T02:43:14;20.60;58.80
65038;DHT22;51605;47.040;15.294;2022-12-18T02:45:49;20.60;58.80
65038;DHT22;51605;47.040;15.294;2022-12-18T02:48:18;20.60;58.70
65038;DHT22;51605;47.040;15.294;2022-12-18T02:51:30;20.60;58.80
65038;DHT22;51605;47.040;15.294;2022-12-18T02:53:40;20.60;58.80
65038;DHT22;51605;47.040;15.294;2022-12-18T02:56:31;20.60;58.80
65038;DHT22;51605;47.040;15.294;2022-12-18T02:59:13;20.60;58.70
65038;DHT22;51605;47.040;15.294;2022-12-18T03:01:57;20.60;58.80
65038;DHT22;51605;47.040;15.294;2022-12-18T03:04:33;20.60;58.70
65038;DHT22;51605;47.040;15.294;2022-12-18T03:07:07;20.60;58.70
65038;DHT22;51605;47.040;15.294;2022-12-18T03:09:39;20.60;58.70
65038;DHT22;51605;47.040;15.294;2022-12-18T03:12:33;20.60;58.70
65038;DHT22;51605;47.040;15.294;2022-12-18T03:15:11;20.60;58.80
65038;DHT22;51605;47.040;15.294;2022-12-18T03:17:41;20.60;58.70
65038;DHT22;51605;47.040;15.294;2022-12-18T03:20:15;20.60;58.70
65038;DHT22;51605;47.040;15.294;2022-12-18T03:22:44;20.60;58.70
65038;DHT22;51605;47.040;15.294;2022-12-18T03:25:13;20.60;58.70
65038;DHT22;51605;47.040;15.294;2022-12-18T03:27:43;20.60;58.80
65038;DHT22;51605;47.040;15.294;2022-12-18T03:30:14;20.60;58.70
65038;DHT22;51605;47.040;15.294;2022-12-18T03:35:26;20.60;58.80
65038;DHT22;51605;47.040;15.294;2022-12-18T03:37:53;20.60;58.70
65038;DHT22;51605;47.040;15.294;2022-12-18T03:40:21;20.60;58.70
65038;DHT22;51605;47.040;15.294;2022-12-18T03:43:00;20.60;58.70
65038;DHT22;51605;47.040;15.294;2022-12-18T03:45:35;20.60;58.70
65038;DHT22;51605;47.040;15.294;2022-12-18T03:48:04;20.60;58.70
65038;DHT22;51605;47.040;15.294;2022-12-18T03:53:25;20.60;58.70
65038;DHT22;51605;47.040;15.294;2022-12-18T03:55:55;20.60;58.70
65038;DHT22;51605;47.040;15.294;2022-12-18T03:58:24;20.60;58.70
65038;DHT22;51605;47.040;15.294;2022-12-18T04:00:52;20.60;58.70
65038;DHT22;51605;47.040;15.294;2022-12-18T04:03:18;20.60;58.70
65038;DHT22;51605;47.040;15.294;2022-12-18T04:05:45;20.60;58.70
65038;DHT22;51605;47.040;15.294;2022-12-18T04:08:12;20.60;58.70
65038;DHT22;51605;47.040;15.294;2022-12-18T04:10:38;20.60;58.50
65038;DHT22;51605;47.040;15.294;2022-12-18T04:13:04;20.60;58.60
65038;DHT22;51605;47.040;15.294;2022-12-18T04:15:33;20.60;58.60
65038;DHT22;51605;47.040;15.294;2022-12-18T04:18:00;20.60;58.60
65038;DHT22;51605;47.040;15.294;2022-12-18T04:20:25;20.60;58.60
65038;DHT22;51605;47.040;15.294;2022-12-18T04:22:51;20.60;58.60
65038;DHT22;51605;47.040;15.294;2022-12-18T04:25:17;20.60;58.60
65038;DHT22;51605;47.040;15.294;2022-12-18T04:27:42;20.60;58.60
65038;DHT22;51605;47.040;15.294;2022-12-18T04:30:08;20.60;58.70
65038;DHT22;51605;47.040;15.294;2022-12-18T04:32:35;20.60;58.70
65038;DHT22;51605;47.040;15.294;2022-12-18T04:35:01;20.60;58.70
65038;DHT22;51605;47.040;15.294;2022-12-18T04:37:27;20.60;58.70
65038;DHT22;51605;47.040;15.294;2022-12-18T04:39:52;20.60;58.70
65038;DHT22;51605;47.040;15.294;2022-12-18T04:42:18;20.60;58.70
65038;DHT22;51605;47.040;15.294;2022-12-18T04:44:43;20.60;58.70
65038;DHT22;51605;47.040;15.294;2022-12-18T04:47:09;20.60;58.70
65038;DHT22;51605;47.040;15.294;2022-12-18T04:49:35;20.60;58.60
65038;DHT22;51605;47.040;15.294;2022-12-18T04:52:01;20.60;58.50
65038;DHT22;51605;47.040;15.294;2022-12-18T04:54:26;20.60;58.50
65038;DHT22;51605;47.040;15.294;2022-12-18T04:56:52;20.60;58.50
65038;DHT22;51605;47.040;15.294;2022-12-18T04:59:17;20.60;58.50
65038;DHT22;51605;47.040;15.294;2022-12-18T05:01:43;20.60;58.50
65038;DHT22;51605;47.040;15.294;2022-12-18T05:04:09;20.70;58.60
65038;DHT22;51605;47.040;15.294;2022-12-18T05:06:34;20.60;58.50
65038;DHT22;51605;47.040;15.294;2022-12-18T05:09:00;20.60;58.50
65038;DHT22;51605;47.040;15.294;2022-12-18T05:11:25;20.60;58.50
65038;DHT22;51605;47.040;15.294;2022-12-18T05:13:51;20.60;58.70
65038;DHT22;51605;47.040;15.294;2022-12-18T05:16:17;20.60;58.50
65038;DHT22;51605;47.040;15.294;2022-12-18T05:18:42;20.60;58.50
65038;DHT22;51605;47.040;15.294;2022-12-18T05:21:08;20.60;58.50
65038;DHT22;51605;47.040;15.294;2022-12-18T05:23:34;20.60;58.50
65038;DHT22;51605;47.040;15.294;2022-12-18T05:26:02;20.60;58.50
65038;DHT22;51605;47.040;15.294;2022-12-18T05:28:29;20.60;58.50
65038;DHT22;51605;47.040;15.294;2022-12-18T05:30:58;20.60;58.50
65038;DHT22;51605;47.040;15.294;2022-12-18T05:33:25;20.60;58.50
65038;DHT22;51605;47.040;15.294;2022-12-18T05:35:58;20.60;58.50
65038;DHT22;51605;47.040;15.294;2022-12-18T05:38:25;20.60;58.50
65038;DHT22;51605;47.040;15.294;2022-12-18T05:40:52;20.60;58.50
65038;DHT22;51605;47.040;15.294;2022-12-18T05:43:19;20.60;58.60
65038;DHT22;51605;47.040;15.294;2022-12-18T05:45:45;20.60;58.50
65038;DHT22;51605;47.040;15.294;2022-12-18T05:48:13;20.60;58.50
65038;DHT22;51605;47.040;15.294;2022-12-18T05:50:41;20.60;58.50
65038;DHT22;51605;47.040;15.294;2022-12-18T05:53:07;20.60;58.50
65038;DHT22;51605;47.040;15.294;2022-12-18T05:55:37;20.60;58.50
65038;DHT22;51605;47.040;15.294;2022-12-18T05:58:04;20.60;58.50
65038;DHT22;51605;47.040;15.294;2022-12-18T06:00:30;20.60;58.50
65038;DHT22;51605;47.040;15.294;2022-12-18T06:02:57;20.60;58.50
65038;DHT22;51605;47.040;15.294;2022-12-18T06:05:23;20.60;58.50
65038;DHT22;51605;47.040;15.294;2022-12-18T06:07:49;20.60;58.50
65038;DHT22;51605;47.040;15.294;2022-12-18T06:10:14;20.60;58.50
65038;DHT22;51605;47.040;15.294;2022-12-18T06:12:40;20.60;58.50
65038;DHT22;51605;47.040;15.294;2022-12-18T06:15:06;20.60;58.50
65038;DHT22;51605;47.040;15.294;2022-12-18T06:17:32;20.60;58.50
65038;DHT22;51605;47.040;15.294;2022-12-18T06:19:58;20.60;58.40
65038;DHT22;51605;47.040;15.294;2022-12-18T06:22:24;20.70;58.50
65038;DHT22;51605;47.040;15.294;2022-12-18T06:24:50;20.60;58.50
65038;DHT22;51605;47.040;15.294;2022-12-18T06:27:16;20.60;58.50
65038;DHT22;51605;47.040;15.294;2022-12-18T06:29:42;20.60;58.50
65038;DHT22;51605;47.040;15.294;2022-12-18T06:32:08;20.60;58.40
65038;DHT22;51605;47.040;15.294;2022-12-18T06:34:34;20.70;58.50
65038;DHT22;51605;47.040;15.294;2022-12-18T06:37:00;20.60;58.50
65038;DHT22;51605;47.040;15.294;2022-12-18T06:39:28;20.70;58.40
65038;DHT22;51605;47.040;15.294;2022-12-18T06:41:54;20.60;58.40
65038;DHT22;51605;47.040;15.294;2022-12-18T06:44:20;20.70;58.50
65038;DHT22;51605;47.040;15.294;2022-12-18T06:46:45;20.60;58.50
65038;DHT22;51605;47.040;15.294;2022-12-18T06:49:11;20.60;58.50
65038;DHT22;51605;47.040;15.294;2022-12-18T06:51:37;20.60;58.50
65038;DHT22;51605;47.040;15.294;2022-12-18T06:54:03;20.60;58.40
65038;DHT22;51605;47.040;15.294;2022-12-18T06:56:29;20.60;58.40
65038;DHT22;51605;47.040;15.294;2022-12-18T06:58:55;20.70;58.50
65038;DHT22;51605;47.040;15.294;2022-12-18T07:01:21;20.70;58.50
65038;DHT22;51605;47.040;15.294;2022-12-18T07:03:52;20.70;58.50
65038;DHT22;51605;47.040;15.294;2022-12-18T07:06:20;20.60;58.40
65038;DHT22;51605;47.040;15.294;2022-12-18T07:08:47;20.60;58.40
65038;DHT22;51605;47.040;15.294;2022-12-18T07:11:13;20.60;58.50
65038;DHT22;51605;47.040;15.294;2022-12-18T07:13:39;20.60;58.50
65038;DHT22;51605;47.040;15.294;2022-12-18T07:16:09;20.50;58.60
65038;DHT22;51605;47.040;15.294;2022-12-18T07:18:35;20.60;58.70
65038;DHT22;51605;47.040;15.294;2022-12-18T07:21:05;20.60;58.90
65038;DHT22;51605;47.040;15.294;2022-12-18T07:23:33;20.60;58.70
65038;DHT22;51605;47.040;15.294;2022-12-18T07:26:07;20.60;58.70
65038;DHT22;51605;47.040;15.294;2022-12-18T07:28:34;20.60;58.70
65038;DHT22;51605;47.040;15.294;2022-12-18T07:31:05;20.60;58.60
65038;DHT22;51605;47.040;15.294;2022-12-18T07:33:32;20.60;58.70
65038;DHT22;51605;47.040;15.294;2022-12-18T07:35:59;20.60;58.70
65038;DHT22;51605;47.040;15.294;2022-12-18T07:38:25;20.60;58.70
65038;DHT22;51605;47.040;15.294;2022-12-18T07:40:50;20.60;58.70
65038;DHT22;51605;47.040;15.294;2022-12-18T07:43:16;20.70;58.60
65038;DHT22;51605;47.040;15.294;2022-12-18T07:45:42;20.60;58.60
65038;DHT22;51605;47.040;15.294;2022-12-18T07:48:08;20.60;58.60
65038;DHT22;51605;47.040;15.294;2022-12-18T07:50:34;20.60;58.70
65038;DHT22;51605;47.040;15.294;2022-12-18T07:52:59;20.60;58.70
65038;DHT22;51605;47.040;15.294;2022-12-18T07:55:29;20.60;58.70
65038;DHT22;51605;47.040;15.294;2022-12-18T07:57:55;20.60;58.80
65038;DHT22;51605;47.040;15.294;2022-12-18T08:00:21;20.60;58.80
65038;DHT22;51605;47.040;15.294;2022-12-18T08:02:47;20.60;58.80
65038;DHT22;51605;47.040;15.294;2022-12-18T08:05:13;20.60;58.80
65038;DHT22;51605;47.040;15.294;2022-12-18T08:07:39;20.60;58.80
65038;DHT22;51605;47.040;15.294;2022-12-18T08:10:05;20.60;58.80
65038;DHT22;51605;47.040;15.294;2022-12-18T08:12:31;20.60;58.90
65038;DHT22;51605;47.040;15.294;2022-12-18T08:14:57;20.60;59.00
65038;DHT22;51605;47.040;15.294;2022-12-18T08:17:22;20.60;58.80
65038;DHT22;51605;47.040;15.294;2022-12-18T08:19:48;20.60;59.00
65038;DHT22;51605;47.040;15.294;2022-12-18T08:22:14;20.60;58.90
65038;DHT22;51605;47.040;15.294;2022-12-18T08:24:39;20.60;58.90
65038;DHT22;51605;47.040;15.294;2022-12-18T08:27:05;20.60;58.90
65038;DHT22;51605;47.040;15.294;2022-12-18T08:29:30;20.60;58.90
65038;DHT22;51605;47.040;15.294;2022-12-18T08:31:57;20.60;58.90
65038;DHT22;51605;47.040;15.294;2022-12-18T08:34:23;20.60;60.20
65038;DHT22;51605;47.040;15.294;2022-12-18T08:36:49;20.60;60.00
65038;DHT22;51605;47.040;15.294;2022-12-18T08:39:14;20.60;59.50
65038;DHT22;51605;47.040;15.294;2022-12-18T08:41:40;20.60;59.40
65038;DHT22;51605;47.040;15.294;2022-12-18T08:44:07;20.60;59.30
65038;DHT22;51605;47.040;15.294;2022-12-18T08:46:51;20.60;59.30
65038;DHT22;51605;47.040;15.294;2022-12-18T08:49:17;20.60;59.40
65038;DHT22;51605;47.040;15.294;2022-12-18T08:51:42;20.60;59.40
65038;DHT22;51605;47.040;15.294;2022-12-18T08:54:11;20.60;59.50
65038;DHT22;51605;47.040;15.294;2022-12-18T08:56:37;20.60;59.50
65038;DHT22;51605;47.040;15.294;2022-12-18T08:59:02;20.60;59.50
65038;DHT22;51605;47.040;15.294;2022-12-18T09:01:29;20.60;59.70
65038;DHT22;51605;47.040;15.294;2022-12-18T09:03:55;20.60;59.60
65038;DHT22;51605;47.040;15.294;2022-12-18T09:06:21;20.60;59.50
65038;DHT22;51605;47.040;15.294;2022-12-18T09:08:47;20.60;59.60
65038;DHT22;51605;47.040;15.294;2022-12-18T09:11:18;20.60;59.60
65038;DHT22;51605;47.040;15.294;2022-12-18T09:13:44;20.60;59.50
65038;DHT22;51605;47.040;15.294;2022-12-18T09:16:10;20.60;59.50
65038;DHT22;51605;47.040;15.294;2022-12-18T09:18:35;20.60;59.50
65038;DHT22;51605;47.040;15.294;2022-12-18T09:21:10;20.60;59.30
65038;DHT22;51605;47.040;15.294;2022-12-18T09:23:37;20.60;59.30
65038;DHT22;51605;47.040;15.294;2022-12-18T09:26:02;20.70;59.20
65038;DHT22;51605;47.040;15.294;2022-12-18T09:28:28;20.60;59.10
65038;DHT22;51605;47.040;15.294;2022-12-18T09:30:54;20.70;59.10
65038;DHT22;51605;47.040;15.294;2022-12-18T09:33:19;20.70;59.10
65038;DHT22;51605;47.040;15.294;2022-12-18T09:35:45;20.70;59.10
65038;DHT22;51605;47.040;15.294;2022-12-18T09:38:13;20.70;59.00
65038;DHT22;51605;47.040;15.294;2022-12-18T09:40:45;20.70;59.00
65038;DHT22;51605;47.040;15.294;2022-12-18T09:43:26;20.70;59.00
65038;DHT22;51605;47.040;15.294;2022-12-18T09:46:05;20.70;59.00
65038;DHT22;51605;47.040;15.294;2022-12-18T09:48:35;20.70;59.00
65038;DHT22;51605;47.040;15.294;2022-12-18T09:51:12;20.70;58.90
65038;DHT22;51605;47.040;15.294;2022-12-18T09:53:41;20.70;58.90
65038;DHT22;51605;47.040;15.294;2022-12-18T09:56:15;20.70;58.90
65038;DHT22;51605;47.040;15.294;2022-12-18T09:58:46;20.70;59.00
65038;DHT22;51605;47.040;15.294;2022-12-18T10:01:21;20.70;59.00
65038;DHT22;51605;47.040;15.294;2022-12-18T10:03:48;20.70;58.90
65038;DHT22;51605;47.040;15.294;2022-12-18T10:06:35;20.70;58.90
65038;DHT22;51605;47.040;15.294;2022-12-18T10:09:51;20.70;58.90
65038;DHT22;51605;47.040;15.294;2022-12-18T10:15:22;20.60;58.90
65038;DHT22;51605;47.040;15.294;2022-12-18T10:18:22;20.60;58.90
65038;DHT22;51605;47.040;15.294;2022-12-18T10:20:53;20.70;58.90
65038;DHT22;51605;47.040;15.294;2022-12-18T10:23:27;20.70;58.90
65038;DHT22;51605;47.040;15.294;2022-12-18T10:26:05;20.60;58.90
65038;DHT22;51605;47.040;15.294;2022-12-18T10:28:33;20.60;58.90
65038;DHT22;51605;47.040;15.294;2022-12-18T10:31:00;20.60;58.90
65038;DHT22;51605;47.040;15.294;2022-12-18T10:33:30;20.60;58.90
65038;DHT22;51605;47.040;15.294;2022-12-18T10:35:57;20.60;59.00
65038;DHT22;51605;47.040;15.294;2022-12-18T10:38:26;20.60;58.90
65038;DHT22;51605;47.040;15.294;2022-12-18T10:54:05;20.60;59.00
65038;DHT22;51605;47.040;15.294;2022-12-18T10:56:34;20.60;58.90
65038;DHT22;51605;47.040;15.294;2022-12-18T10:59:04;20.60;59.00
65038;DHT22;51605;47.040;15.294;2022-12-18T11:01:56;20.60;59.00
65038;DHT22;51605;47.040;15.294;2022-12-18T11:04:22;20.60;59.10
65038;DHT22;51605;47.040;15.294;2022-12-18T11:06:54;20.60;59.00
65038;DHT22;51605;47.040;15.294;2022-12-18T11:09:22;20.60;59.00
65038;DHT22;51605;47.040;15.294;2022-12-18T11:11:55;20.60;59.10
65038;DHT22;51605;47.040;15.294;2022-12-18T11:14:42;20.60;59.00
65038;DHT22;51605;47.040;15.294;2022-12-18T11:17:28;20.60;58.90
65038;DHT22;51605;47.040;15.294;2022-12-18T11:20:04;20.60;59.00
65038;DHT22;51605;47.040;15.294;2022-12-18T11:22:35;20.60;59.00
65038;DHT22;51605;47.040;15.294;2022-12-18T11:27:38;20.60;59.10
65038;DHT22;51605;47.040;15.294;2022-12-18T11:30:36;20.60;59.00
65038;DHT22;51605;47.040;15.294;2022-12-18T11:33:16;20.60;59.10
65038;DHT22;51605;47.040;15.294;2022-12-18T11:35:57;20.60;59.00
65038;DHT22;51605;47.040;15.294;2022-12-18T11:38:32;20.60;59.00
65038;DHT22;51605;47.040;15.294;2022-12-18T11:41:05;20.60;59.00
65038;DHT22;51605;47.040;15.294;2022-12-18T11:43:56;20.60;59.00
65038;DHT22;51605;47.040;15.294;2022-12-18T11:46:49;20.60;59.10
65038;DHT22;51605;47.040;15.294;2022-12-18T11:49:28;20.60;59.00
65038;DHT22;51605;47.040;15.294;2022-12-18T11:54:34;20.60;59.10
65038;DHT22;51605;47.040;15.294;2022-12-18T11:57:31;20.60;59.00
65038;DHT22;51605;47.040;15.294;2022-12-18T12:00:12;20.60;59.00
65038;DHT22;51605;47.040;15.294;2022-12-18T12:05:20;20.60;58.90
65038;DHT22;51605;47.040;15.294;2022-12-18T12:16:41;20.60;59.10
65038;DHT22;51605;47.040;15.294;2022-12-18T12:22:23;20.60;59.10
65038;DHT22;51605;47.040;15.294;2022-12-18T12:25:02;20.60;59.50
65038;DHT22;51605;47.040;15.294;2022-12-18T12:27:36;20.60;59.10
65038;DHT22;51605;47.040;15.294;2022-12-18T12:30:20;20.60;59.10
65038;DHT22;51605;47.040;15.294;2022-12-18T12:33:46;20.60;59.20
65038;DHT22;51605;47.040;15.294;2022-12-18T12:38:55;20.60;59.10
65038;DHT22;51605;47.040;15.294;2022-12-18T12:41:25;20.60;59.00
65038;DHT22;51605;47.040;15.294;2022-12-18T12:44:18;20.60;59.10
65038;DHT22;51605;47.040;15.294;2022-12-18T12:46:46;20.60;59.10
65038;DHT22;51605;47.040;15.294;2022-12-18T12:49:19;20.60;59.10
65038;DHT22;51605;47.040;15.294;2022-12-18T12:51:57;20.60;59.20
65038;DHT22;51605;47.040;15.294;2022-12-18T12:54:25;20.60;59.30
65038;DHT22;51605;47.040;15.294;2022-12-18T12:57:34;20.60;59.30
65038;DHT22;51605;47.040;15.294;2022-12-18T13:00:09;20.60;59.30
65038;DHT22;51605;47.040;15.294;2022-12-18T13:06:04;20.70;60.60
65038;DHT22;51605;47.040;15.294;2022-12-18T13:09:00;20.80;60.80
65038;DHT22;51605;47.040;15.294;2022-12-18T13:14:38;21.00;61.20
65038;DHT22;51605;47.040;15.294;2022-12-18T13:17:27;21.10;61.30
65038;DHT22;51605;47.040;15.294;2022-12-18T13:20:13;21.20;61.20
65038;DHT22;51605;47.040;15.294;2022-12-18T13:22:48;21.30;61.10
65038;DHT22;51605;47.040;15.294;2022-12-18T13:25:29;21.40;61.10
65038;DHT22;51605;47.040;15.294;2022-12-18T13:28:00;21.40;60.80
65038;DHT22;51605;47.040;15.294;2022-12-18T13:35:52;21.30;60.60
65038;DHT22;51605;47.040;15.294;2022-12-18T13:38:44;21.20;60.60
65038;DHT22;51605;47.040;15.294;2022-12-18T13:46:28;21.10;60.70
65038;DHT22;51605;47.040;15.294;2022-12-18T13:49:00;21.10;60.90
65038;DHT22;51605;47.040;15.294;2022-12-18T13:51:27;21.00;60.90
65038;DHT22;51605;47.040;15.294;2022-12-18T13:54:05;21.00;60.90
65038;DHT22;51605;47.040;15.294;2022-12-18T13:56:33;21.00;60.90
65038;DHT22;51605;47.040;15.294;2022-12-18T13:59:16;21.00;60.80
65038;DHT22;51605;47.040;15.294;2022-12-18T14:02:07;20.90;60.90
65038;DHT22;51605;47.040;15.294;2022-12-18T14:04:35;20.90;60.90
65038;DHT22;51605;47.040;15.294;2022-12-18T14:07:05;20.90;60.90
65038;DHT22;51605;47.040;15.294;2022-12-18T14:09:35;20.90;60.90
65038;DHT22;51605;47.040;15.294;2022-12-18T14:12:02;20.90;61.00
65038;DHT22;51605;47.040;15.294;2022-12-18T14:14:48;20.90;60.90
65038;DHT22;51605;47.040;15.294;2022-12-18T14:17:15;20.90;61.00
65038;DHT22;51605;47.040;15.294;2022-12-18T14:19:46;20.80;60.90
65038;DHT22;51605;47.040;15.294;2022-12-18T14:22:18;20.80;60.90
65038;DHT22;51605;47.040;15.294;2022-12-18T14:24:46;20.70;60.80
65038;DHT22;51605;47.040;15.294;2022-12-18T14:27:22;20.70;60.80
65038;DHT22;51605;47.040;15.294;2022-12-18T14:29:49;20.70;60.80
65038;DHT22;51605;47.040;15.294;2022-12-18T14:32:19;20.70;60.80
65038;DHT22;51605;47.040;15.294;2022-12-18T14:34:47;20.70;60.80
65038;DHT22;51605;47.040;15.294;2022-12-18T14:37:15;20.70;60.70
65038;DHT22;51605;47.040;15.294;2022-12-18T14:40:04;20.70;61.40
65038;DHT22;51605;47.040;15.294;2022-12-18T14:42:31;20.70;60.70
65038;DHT22;51605;47.040;15.294;2022-12-18T14:45:34;20.70;60.40
65038;DHT22;51605;47.040;15.294;2022-12-18T14:48:00;20.70;60.50
65038;DHT22;51605;47.040;15.294;2022-12-18T14:50:26;20.70;60.80
65038;DHT22;51605;47.040;15.294;2022-12-18T14:52:52;20.70;60.50
65038;DHT22;51605;47.040;15.294;2022-12-18T14:55:19;20.70;60.50
65038;DHT22;51605;47.040;15.294;2022-12-18T14:57:50;20.70;60.80
65038;DHT22;51605;47.040;15.294;2022-12-18T15:00:19;20.70;60.40
65038;DHT22;51605;47.040;15.294;2022-12-18T15:03:06;20.70;60.40
65038;DHT22;51605;47.040;15.294;2022-12-18T15:05:33;20.70;60.50
65038;DHT22;51605;47.040;15.294;2022-12-18T15:08:00;20.70;60.90
65038;DHT22;51605;47.040;15.294;2022-12-18T15:10:32;20.70;60.80
65038;DHT22;51605;47.040;15.294;2022-12-18T15:18:23;20.70;60.50
65038;DHT22;51605;47.040;15.294;2022-12-18T15:20:56;20.70;60.50
65038;DHT22;51605;47.040;15.294;2022-12-18T15:26:13;20.70;60.40
65038;DHT22;51605;47.040;15.294;2022-12-18T15:28:49;20.70;61.20
65038;DHT22;51605;47.040;15.294;2022-12-18T15:33:41;20.70;60.30
65038;DHT22;51605;47.040;15.294;2022-12-18T15:36:14;20.70;60.30
65038;DHT22;51605;47.040;15.294;2022-12-18T15:38:40;20.70;60.30
65038;DHT22;51605;47.040;15.294;2022-12-18T15:41:06;20.70;60.30
65038;DHT22;51605;47.040;15.294;2022-12-18T15:43:37;20.70;60.20
65038;DHT22;51605;47.040;15.294;2022-12-18T15:46:12;20.70;60.20
65038;DHT22;51605;47.040;15.294;2022-12-18T15:48:42;20.70;60.20
65038;DHT22;51605;47.040;15.294;2022-12-18T15:51:22;20.70;60.20
65038;DHT22;51605;47.040;15.294;2022-12-18T15:53:53;20.70;60.30
65038;DHT22;51605;47.040;15.294;2022-12-18T15:56:20;20.70;60.30
65038;DHT22;51605;47.040;15.294;2022-12-18T15:59:12;20.70;60.20
65038;DHT22;51605;47.040;15.294;2022-12-18T16:01:39;20.70;60.20
65038;DHT22;51605;47.040;15.294;2022-12-18T16:04:05;20.70;60.10
65038;DHT22;51605;47.040;15.294;2022-12-18T16:06:30;20.70;60.30
65038;DHT22;51605;47.040;15.294;2022-12-18T16:08:56;20.70;60.30
65038;DHT22;51605;47.040;15.294;2022-12-18T16:14:05;20.70;60.30
65038;DHT22;51605;47.040;15.294;2022-12-18T16:16:31;20.70;60.20
65038;DHT22;51605;47.040;15.294;2022-12-18T16:18:56;20.70;60.20
65038;DHT22;51605;47.040;15.294;2022-12-18T16:21:22;20.70;60.20
65038;DHT22;51605;47.040;15.294;2022-12-18T16:23:48;20.70;60.20
65038;DHT22;51605;47.040;15.294;2022-12-18T16:26:13;20.70;60.20
65038;DHT22;51605;47.040;15.294;2022-12-18T16:28:39;20.70;60.30
65038;DHT22;51605;47.040;15.294;2022-12-18T16:31:06;20.70;60.20
65038;DHT22;51605;47.040;15.294;2022-12-18T16:33:32;20.70;60.20
65038;DHT22;51605;47.040;15.294;2022-12-18T16:35:59;20.60;60.30
65038;DHT22;51605;47.040;15.294;2022-12-18T16:38:25;20.60;60.90
65038;DHT22;51605;47.040;15.294;2022-12-18T16:40:51;20.60;61.60
65038;DHT22;51605;47.040;15.294;2022-12-18T16:43:35;20.70;61.30
65038;DHT22;51605;47.040;15.294;2022-12-18T16:46:01;20.80;62.00
65038;DHT22;51605;47.040;15.294;2022-12-18T16:48:26;20.90;62.20
65038;DHT22;51605;47.040;15.294;2022-12-18T16:51:00;20.90;62.40
65038;DHT22;51605;47.040;15.294;2022-12-18T16:53:27;21.00;62.70
65038;DHT22;51605;47.040;15.294;2022-12-18T16:55:56;21.20;62.70
65038;DHT22;51605;47.040;15.294;2022-12-18T16:58:22;21.30;62.70
65038;DHT22;51605;47.040;15.294;2022-12-18T17:00:48;21.40;62.60
65038;DHT22;51605;47.040;15.294;2022-12-18T17:03:14;21.50;62.60
65038;DHT22;51605;47.040;15.294;2022-12-18T17:05:40;21.60;62.40